Time;durP1;ratioP1;P1;durP2;ratioP2;P2;SDS_P1;SDS_P2;PMS_P1;PMS_P2;Temp;Humidity;BMP_temperature;BMP_pressure;BME280_temperature;BME280_humidity;BME280_pressure;Samples;Min_cycle;Max_cycle;Signal;HPM_P1;HPM_P2
2023/04/02 00:02:19;;;;;;;4.60;1.70;;;;;;;;;;5112100;27;20027;-68
2023/04/02 00:04:51;;;;;;;4.80;2.00;;;;;;;;;;5112385;28;20490;-66
2023/04/02 00:07:32;;;;;;;5.05;1.83;;;;;;;;;;5114398;28;20474;-66
2023/04/02 00:09:58;;;;;;;5.03;2.20;;;;;;;;;;5114364;28;20069;-66
2023/04/02 00:12:23;;;;;;;4.35;1.70;;;;;;;;;;5114092;28;20423;-64
2023/04/02 00:14:53;;;;;;;5.95;2.20;;;;;;;;;;5114090;28;20091;-68
2023/04/02 00:17:21;;;;;;;5.38;2.15;;;;;;;;;;5113153;28;20027;-64
2023/04/02 00:19:59;;;;;;;4.20;1.90;;;;;;;;;;5112748;28;20358;-76
2023/04/02 00:22:32;;;;;;;4.68;2.47;;;;;;;;;;5112583;28;20015;-77
2023/04/02 00:25:01;;;;;;;8.30;1.60;;;;;;;;;;5112652;28;20028;-77
2023/04/02 00:27:30;;;;;;;4.53;1.90;;;;;;;;;;5109638;28;20031;-78
2023/04/02 00:29:57;;;;;;;5.03;2.00;;;;;;;;;;5112302;28;20020;-79
2023/04/02 00:32:26;;;;;;;5.15;1.60;;;;;;;;;;5112166;28;20078;-72
2023/04/02 00:34:52;;;;;;;4.07;1.88;;;;;;;;;;5112833;28;20059;-77
2023/04/02 00:37:26;;;;;;;5.22;1.77;;;;;;;;;;5112033;28;20074;-75
2023/04/02 00:40:06;;;;;;;8.00;2.58;;;;;;;;;;5113493;27;20114;-77
2023/04/02 00:42:34;;;;;;;5.03;1.85;;;;;;;;;;5112831;28;20067;-78
2023/04/02 00:45:01;;;;;;;6.10;2.40;;;;;;;;;;5113098;28;20073;-77
2023/04/02 00:47:33;;;;;;;4.10;2.00;;;;;;;;;;5111019;28;20371;-77
2023/04/02 00:50:05;;;;;;;7.82;2.00;;;;;;;;;;5111748;28;20023;-79
2023/04/02 00:52:32;;;;;;;7.70;2.10;;;;;;;;;;5109340;28;20020;-79
2023/04/02 00:55:06;;;;;;;6.43;2.10;;;;;;;;;;5111964;28;20020;-78
2023/04/02 00:57:32;;;;;;;7.97;1.92;;;;;;;;;;5108126;28;20032;-78
2023/04/02 01:00:14;;;;;;;4.05;1.65;;;;;;;;;;5112559;28;20035;-76
2023/04/02 01:02:40;;;;;;;6.80;2.10;;;;;;;;;;5112325;28;20023;-79
2023/04/02 01:05:12;;;;;;;6.10;1.85;;;;;;;;;;5112263;28;20047;-77
2023/04/02 01:07:43;;;;;;;6.32;2.15;;;;;;;;;;5112729;28;20446;-79
2023/04/02 01:10:27;;;;;;;6.00;1.90;;;;;;;;;;5112419;28;20522;-76
2023/04/02 01:12:55;;;;;;;3.65;1.88;;;;;;;;;;5112699;28;20055;-78
2023/04/02 01:15:29;;;;;;;5.97;2.05;;;;;;;;;;5112521;28;20106;-79
2023/04/02 01:18:00;;;;;;;3.63;1.70;;;;;;;;;;5112643;28;20027;-79
2023/04/02 01:20:53;;;;;;;7.22;2.30;;;;;;;;;;5112546;28;20035;-79
2023/04/02 01:23:37;;;;;;;6.57;2.15;;;;;;;;;;5112050;28;20027;-73
2023/04/02 01:26:05;;;;;;;4.03;1.85;;;;;;;;;;5111315;28;20026;-73
2023/04/02 01:28:44;;;;;;;6.15;1.65;;;;;;;;;;5110854;27;20035;-74
2023/04/02 01:31:10;;;;;;;3.78;1.40;;;;;;;;;;5108400;28;20034;-77
2023/04/02 01:33:36;;;;;;;4.43;1.98;;;;;;;;;;5110557;28;20373;-77
2023/04/02 01:36:17;;;;;;;3.85;1.55;;;;;;;;;;5110323;28;20098;-73
2023/04/02 01:38:55;;;;;;;4.82;2.05;;;;;;;;;;5108177;28;20023;-74
2023/04/02 01:41:33;;;;;;;5.53;1.88;;;;;;;;;;5107792;28;20086;-78
2023/04/02 01:44:06;;;;;;;4.57;1.95;;;;;;;;;;5110246;28;20114;-74
2023/04/02 01:46:34;;;;;;;7.70;2.47;;;;;;;;;;5110303;28;20027;-79
2023/04/02 01:49:13;;;;;;;5.28;1.80;;;;;;;;;;5114894;27;20383;-74
2023/04/02 01:51:42;;;;;;;4.32;2.03;;;;;;;;;;5110365;28;20377;-74
2023/04/02 01:54:08;;;;;;;4.50;1.60;;;;;;;;;;5110138;28;20020;-76
2023/04/02 01:56:34;;;;;;;5.35;1.58;;;;;;;;;;5110255;28;20032;-72
2023/04/02 01:59:02;;;;;;;3.05;1.50;;;;;;;;;;5105217;28;20028;-72
2023/04/02 02:01:43;;;;;;;6.35;1.90;;;;;;;;;;5111170;28;20028;-76
2023/04/02 02:04:12;;;;;;;5.15;1.52;;;;;;;;;;5111011;28;20122;-69
2023/04/02 02:06:38;;;;;;;6.55;1.77;;;;;;;;;;5110941;28;20035;-68
2023/04/02 02:09:06;;;;;;;7.07;2.03;;;;;;;;;;5110950;28;20020;-71
2023/04/02 02:11:32;;;;;;;8.25;1.90;;;;;;;;;;5111069;28;20470;-66
2023/04/02 02:14:17;;;;;;;6.75;2.40;;;;;;;;;;5111085;28;20016;-73
2023/04/02 02:16:45;;;;;;;5.90;2.10;;;;;;;;;;5114023;28;20019;-69
2023/04/02 02:19:26;;;;;;;11.63;2.78;;;;;;;;;;5115208;28;20019;-76
2023/04/02 02:21:55;;;;;;;7.05;2.58;;;;;;;;;;5115093;28;20084;-66
2023/04/02 02:24:25;;;;;;;6.07;2.05;;;;;;;;;;5114860;28;20114;-70
2023/04/02 02:27:03;;;;;;;4.75;1.50;;;;;;;;;;5115042;28;20138;-64
2023/04/02 02:29:33;;;;;;;5.15;1.73;;;;;;;;;;5115075;28;20436;-67
2023/04/02 02:32:01;;;;;;;4.68;1.60;;;;;;;;;;5114589;28;20115;-70
2023/04/02 02:34:36;;;;;;;4.13;1.60;;;;;;;;;;5114295;28;20497;-66
2023/04/02 02:37:11;;;;;;;6.25;2.13;;;;;;;;;;5114405;28;20043;-66
2023/04/02 02:39:40;;;;;;;6.15;1.77;;;;;;;;;;5113227;28;20039;-68
2023/04/02 02:42:23;;;;;;;4.68;1.60;;;;;;;;;;5114354;28;20031;-64
2023/04/02 02:44:51;;;;;;;5.57;1.95;;;;;;;;;;5114565;28;20096;-63
2023/04/02 02:47:36;;;;;;;5.40;1.73;;;;;;;;;;5114619;28;20073;-67
2023/04/02 02:50:06;;;;;;;3.38;1.33;;;;;;;;;;5114737;28;20096;-69
2023/04/02 02:52:35;;;;;;;4.43;1.30;;;;;;;;;;5114140;28;20546;-65
2023/04/02 02:55:17;;;;;;;4.10;1.23;;;;;;;;;;5114581;28;20031;-73
2023/04/02 02:58:08;;;;;;;3.13;1.38;;;;;;;;;;5114410;28;20035;-78
2023/04/02 03:00:35;;;;;;;3.63;1.13;;;;;;;;;;5111132;28;20046;-72
2023/04/02 03:03:05;;;;;;;5.72;1.40;;;;;;;;;;5114442;28;20483;-76
2023/04/02 03:05:31;;;;;;;3.90;1.77;;;;;;;;;;5114056;28;20109;-77
2023/04/02 03:07:58;;;;;;;3.08;1.27;;;;;;;;;;5114027;28;20031;-77
2023/04/02 03:10:44;;;;;;;3.38;1.33;;;;;;;;;;5114099;28;20048;-78
2023/04/02 03:13:28;;;;;;;4.20;1.30;;;;;;;;;;5114123;28;20051;-77
2023/04/02 03:16:05;;;;;;;7.90;1.58;;;;;;;;;;5114176;28;20111;-78
2023/04/02 03:18:37;;;;;;;3.72;1.70;;;;;;;;;;5113731;28;20031;-77
2023/04/02 03:21:09;;;;;;;2.72;1.33;;;;;;;;;;5113988;28;20444;-77
2023/04/02 03:23:42;;;;;;;7.88;1.90;;;;;;;;;;5114204;28;20028;-77
2023/04/02 03:26:21;;;;;;;5.47;1.90;;;;;;;;;;5113427;28;20039;-77
2023/04/02 03:29:04;;;;;;;3.35;1.40;;;;;;;;;;5113934;28;20441;-78
2023/04/02 03:31:40;;;;;;;4.00;1.30;;;;;;;;;;5114129;28;20019;-72
2023/04/02 03:35:07;;;;;;;3.33;1.30;;;;;;;;;;5113763;28;20450;-72
2023/04/02 03:37:43;;;;;;;4.72;1.23;;;;;;;;;;5090601;28;20553;-77
2023/04/02 03:40:51;;;;;;;2.53;1.20;;;;;;;;;;5090849;28;20032;-78
2023/04/02 03:43:24;;;;;;;3.20;1.05;;;;;;;;;;4991031;28;20054;-76
2023/04/02 03:45:59;;;;;;;6.03;1.50;;;;;;;;;;4990994;28;20054;-74
2023/04/02 03:48:36;;;;;;;6.50;1.90;;;;;;;;;;4991174;28;20070;-73
2023/04/02 03:51:09;;;;;;;4.18;1.35;;;;;;;;;;4990719;28;20505;-66
2023/04/02 03:53:36;;;;;;;4.00;1.38;;;;;;;;;;4991262;28;20038;-74
2023/04/02 03:56:02;;;;;;;4.22;1.30;;;;;;;;;;4990980;28;20056;-70
2023/04/02 03:58:38;;;;;;;3.65;1.48;;;;;;;;;;4990680;28;20125;-74
2023/04/02 04:01:44;;;;;;;4.88;1.38;;;;;;;;;;4991107;28;20456;-70
2023/04/02 04:04:17;;;;;;;4.50;1.88;;;;;;;;;;4988853;28;20044;-65
2023/04/02 04:06:46;;;;;;;3.63;1.33;;;;;;;;;;4990809;28;20041;-62
2023/04/02 04:09:17;;;;;;;6.60;1.42;;;;;;;;;;5010217;28;20053;-63
2023/04/02 04:11:47;;;;;;;5.53;1.58;;;;;;;;;;5010393;28;20042;-64
2023/04/02 04:14:18;;;;;;;3.95;1.38;;;;;;;;;;5010403;28;20152;-68
2023/04/02 04:16:52;;;;;;;5.95;1.65;;;;;;;;;;5037263;28;20107;-75
2023/04/02 04:19:31;;;;;;;4.00;1.45;;;;;;;;;;5092268;28;20031;-72
2023/04/02 04:22:29;;;;;;;2.60;1.60;;;;;;;;;;5092452;28;20027;-74
2023/04/02 04:25:00;;;;;;;6.50;1.30;;;;;;;;;;5092207;28;20028;-63
2023/04/02 04:27:32;;;;;;;5.28;1.35;;;;;;;;;;5092357;28;20490;-63
2023/04/02 04:30:40;;;;;;;4.80;1.40;;;;;;;;;;5092172;28;20060;-67
2023/04/02 04:33:15;;;;;;;4.18;1.30;;;;;;;;;;5091800;28;20024;-64
2023/04/02 04:35:47;;;;;;;3.58;1.63;;;;;;;;;;5092079;28;20025;-64
2023/04/02 04:38:20;;;;;;;2.30;1.10;;;;;;;;;;5091347;28;20066;-63
2023/04/02 04:40:52;;;;;;;6.40;1.60;;;;;;;;;;5092143;28;20081;-67
2023/04/02 04:43:44;;;;;;;4.95;1.58;;;;;;;;;;5092125;28;20035;-66
2023/04/02 04:46:17;;;;;;;3.95;1.25;;;;;;;;;;5091578;28;20134;-70
2023/04/02 04:48:56;;;;;;;6.55;1.90;;;;;;;;;;5091335;28;20387;-63
2023/04/02 04:51:56;;;;;;;9.63;1.73;;;;;;;;;;5091941;28;20054;-63
2023/04/02 04:54:25;;;;;;;3.97;1.30;;;;;;;;;;5091749;28;20111;-70
2023/04/02 04:56:56;;;;;;;4.10;1.40;;;;;;;;;;5091663;28;20808;-63
2023/04/02 04:59:31;;;;;;;5.78;1.75;;;;;;;;;;5111799;28;20035;-68
2023/04/02 05:02:06;;;;;;;2.70;1.38;;;;;;;;;;5111834;28;20023;-63
2023/04/02 05:04:51;;;;;;;4.85;1.30;;;;;;;;;;5111524;28;20061;-68
2023/04/02 05:07:25;;;;;;;4.22;1.67;;;;;;;;;;5111768;28;20110;-69
2023/04/02 05:09:53;;;;;;;3.80;1.50;;;;;;;;;;5111983;27;20023;-71
2023/04/02 05:12:27;;;;;;;5.28;1.65;;;;;;;;;;5111938;28;20027;-65
2023/04/02 05:14:59;;;;;;;6.07;1.38;;;;;;;;;;5111800;28;20389;-68
2023/04/02 05:17:31;;;;;;;5.20;1.40;;;;;;;;;;5111701;28;20074;-65
2023/04/02 05:20:15;;;;;;;3.97;1.60;;;;;;;;;;5111708;28;20019;-70
2023/04/02 05:23:14;;;;;;;5.30;1.50;;;;;;;;;;5111676;28;20019;-68
2023/04/02 05:26:01;;;;;;;3.55;1.40;;;;;;;;;;5088590;28;20040;-63
2023/04/02 05:28:47;;;;;;;4.93;1.25;;;;;;;;;;5088817;28;20028;-68
2023/04/02 05:31:19;;;;;;;4.55;1.73;;;;;;;;;;5088625;28;20114;-74
2023/04/02 05:33:47;;;;;;;5.22;1.55;;;;;;;;;;5088673;28;20036;-73
2023/04/02 05:36:25;;;;;;;3.55;1.30;;;;;;;;;;5088669;28;20043;-74
2023/04/02 05:38:51;;;;;;;8.20;1.88;;;;;;;;;;5088586;28;20055;-72
2023/04/02 05:41:22;;;;;;;4.40;1.27;;;;;;;;;;5088699;28;20028;-75
2023/04/02 05:43:54;;;;;;;3.15;1.30;;;;;;;;;;5088605;28;20036;-75
2023/04/02 05:46:26;;;;;;;6.45;1.40;;;;;;;;;;5088339;28;20111;-71
2023/04/02 05:48:57;;;;;;;3.92;1.40;;;;;;;;;;5071622;28;20434;-76
2023/04/02 05:51:33;;;;;;;4.18;1.40;;;;;;;;;;5071302;28;20441;-73
2023/04/02 05:54:02;;;;;;;3.42;1.38;;;;;;;;;;5088539;28;20032;-74
2023/04/02 05:56:37;;;;;;;3.92;1.27;;;;;;;;;;5088511;28;20036;-75
2023/04/02 05:59:15;;;;;;;3.80;1.58;;;;;;;;;;5088335;28;20036;-72
2023/04/02 06:02:14;;;;;;;6.75;1.48;;;;;;;;;;5088748;28;20040;-74
2023/04/02 06:04:46;;;;;;;2.63;1.20;;;;;;;;;;5090626;28;20479;-73
2023/04/02 06:07:17;;;;;;;3.75;1.42;;;;;;;;;;5090543;28;20442;-72
2023/04/02 06:10:09;;;;;;;4.25;1.20;;;;;;;;;;5090815;28;20040;-74
2023/04/02 06:12:43;;;;;;;5.70;1.63;;;;;;;;;;5090794;28;20050;-75
2023/04/02 06:15:17;;;;;;;7.95;2.00;;;;;;;;;;5090533;28;20020;-74
2023/04/02 06:17:46;;;;;;;3.83;1.45;;;;;;;;;;5090670;28;20073;-71
2023/04/02 06:20:16;;;;;;;4.70;2.00;;;;;;;;;;5090853;28;20106;-71
2023/04/02 06:22:44;;;;;;;5.30;1.52;;;;;;;;;;5090691;28;20030;-70
2023/04/02 06:25:09;;;;;;;5.40;1.77;;;;;;;;;;5090571;28;20028;-74
2023/04/02 06:27:37;;;;;;;4.03;1.35;;;;;;;;;;5090685;28;20024;-74
2023/04/02 06:30:06;;;;;;;4.40;1.70;;;;;;;;;;5090426;28;20032;-73
2023/04/02 06:32:31;;;;;;;4.43;1.60;;;;;;;;;;5090543;28;20110;-72
2023/04/02 06:34:57;;;;;;;4.22;1.60;;;;;;;;;;5090545;28;20095;-74
2023/04/02 06:37:32;;;;;;;5.63;1.67;;;;;;;;;;5090633;28;20077;-71
2023/04/02 06:39:59;;;;;;;3.58;1.30;;;;;;;;;;5090512;28;20020;-63
2023/04/02 06:42:32;;;;;;;5.22;1.60;;;;;;;;;;5090502;28;20046;-75
2023/04/02 06:44:58;;;;;;;9.77;1.30;;;;;;;;;;5090064;28;20089;-64
2023/04/02 06:47:38;;;;;;;7.78;2.60;;;;;;;;;;5090417;28;20028;-64
2023/04/02 06:50:26;;;;;;;4.35;1.50;;;;;;;;;;5090063;28;20031;-71
2023/04/02 06:52:58;;;;;;;4.75;1.60;;;;;;;;;;5090088;28;20494;-63
2023/04/02 06:56:01;;;;;;;3.15;1.30;;;;;;;;;;5089978;28;20063;-65
2023/04/02 06:58:26;;;;;;;5.15;1.40;;;;;;;;;;5102344;28;20374;-73
2023/04/02 07:00:52;;;;;;;5.28;1.50;;;;;;;;;;5110828;28;20076;-74
2023/04/02 07:03:24;;;;;;;4.20;1.50;;;;;;;;;;5113934;28;20023;-65
2023/04/02 07:05:50;;;;;;;5.13;1.45;;;;;;;;;;5114280;28;20040;-67
2023/04/02 07:08:16;;;;;;;5.63;1.55;;;;;;;;;;5114023;28;20030;-70
2023/04/02 07:10:41;;;;;;;2.83;1.08;;;;;;;;;;5114156;28;20126;-62
2023/04/02 07:13:15;;;;;;;3.17;1.13;;;;;;;;;;5114090;28;20047;-64
2023/04/02 07:15:41;;;;;;;4.63;1.52;;;;;;;;;;5114031;28;20102;-63
2023/04/02 07:18:29;;;;;;;4.68;1.30;;;;;;;;;;5114212;28;20110;-63
2023/04/02 07:20:54;;;;;;;4.13;1.50;;;;;;;;;;5113875;28;20051;-63
2023/04/02 07:23:20;;;;;;;3.88;1.33;;;;;;;;;;5114145;28;20020;-63
2023/04/02 07:25:50;;;;;;;5.30;1.33;;;;;;;;;;5113599;28;20023;-63
2023/04/02 07:28:16;;;;;;;5.57;1.77;;;;;;;;;;5113742;28;20035;-70
2023/04/02 07:30:42;;;;;;;5.82;1.42;;;;;;;;;;5113847;28;20422;-65
2023/04/02 07:33:16;;;;;;;4.85;1.85;;;;;;;;;;5113764;28;20062;-62
2023/04/02 07:35:42;;;;;;;4.15;1.30;;;;;;;;;;5113781;28;20027;-64
2023/04/02 07:38:08;;;;;;;7.00;1.80;;;;;;;;;;5113685;28;20035;-64
2023/04/02 07:40:34;;;;;;;5.03;1.67;;;;;;;;;;5113576;28;20073;-70
2023/04/02 07:43:00;;;;;;;4.78;2.15;;;;;;;;;;5113577;28;20043;-70
2023/04/02 07:45:26;;;;;;;5.47;1.58;;;;;;;;;;5113460;28;20085;-67
2023/04/02 07:47:52;;;;;;;5.63;1.63;;;;;;;;;;5113647;28;20047;-63
2023/04/02 07:50:17;;;;;;;4.43;1.80;;;;;;;;;;5113482;28;20476;-66
2023/04/02 07:52:43;;;;;;;7.15;2.30;;;;;;;;;;5113382;28;20385;-63
2023/04/02 07:55:11;;;;;;;5.47;1.88;;;;;;;;;;5113362;28;20051;-66
2023/04/02 07:57:48;;;;;;;8.30;1.63;;;;;;;;;;5112683;28;20046;-69
2023/04/02 08:00:14;;;;;;;4.07;1.50;;;;;;;;;;5113097;28;20042;-63
2023/04/02 08:02:41;;;;;;;7.40;1.55;;;;;;;;;;5113182;28;20069;-72
2023/04/02 08:05:08;;;;;;;10.73;1.88;;;;;;;;;;5113045;27;20574;-74
2023/04/02 08:07:34;;;;;;;4.40;1.23;;;;;;;;;;5112560;27;20024;-75
2023/04/02 08:10:00;;;;;;;3.70;1.33;;;;;;;;;;5112764;28;20106;-73
2023/04/02 08:12:25;;;;;;;6.00;1.90;;;;;;;;;;5112773;28;20119;-73
2023/04/02 08:14:50;;;;;;;7.85;1.77;;;;;;;;;;5112794;28;20457;-74
2023/04/02 08:17:16;;;;;;;6.40;1.70;;;;;;;;;;5112749;28;20023;-74
2023/04/02 08:19:43;;;;;;;6.05;2.17;;;;;;;;;;5112871;28;20028;-74
2023/04/02 08:22:09;;;;;;;6.00;2.38;;;;;;;;;;5112775;28;20395;-62
2023/04/02 08:24:34;;;;;;;8.60;1.70;;;;;;;;;;5112335;28;20039;-73
2023/04/02 08:27:01;;;;;;;5.53;1.77;;;;;;;;;;5112505;27;20270;-66
2023/04/02 08:29:30;;;;;;;5.03;2.05;;;;;;;;;;5112730;28;20024;-73
2023/04/02 08:31:59;;;;;;;4.57;1.95;;;;;;;;;;5112605;28;20027;-75
2023/04/02 08:34:25;;;;;;;7.63;2.97;;;;;;;;;;5112517;28;20102;-74
2023/04/02 08:36:55;;;;;;;6.32;2.53;;;;;;;;;;5112522;28;20031;-67
2023/04/02 08:39:21;;;;;;;7.05;1.65;;;;;;;;;;5112693;28;20106;-75
2023/04/02 08:42:01;;;;;;;5.25;1.88;;;;;;;;;;5112369;27;20028;-76
2023/04/02 08:45:00;;;;;;;7.78;2.80;;;;;;;;;;5112180;28;20059;-79
2023/04/02 08:47:31;;;;;;;5.53;2.15;;;;;;;;;;5110202;28;20504;-79
2023/04/02 08:50:00;;;;;;;5.60;2.38;;;;;;;;;;5112000;28;20031;-70
2023/04/02 08:52:33;;;;;;;5.10;2.30;;;;;;;;;;5112085;28;20020;-76
2023/04/02 08:55:00;;;;;;;6.35;2.38;;;;;;;;;;5111551;28;20015;-76
2023/04/02 08:57:56;;;;;;;4.72;1.65;;;;;;;;;;5111735;28;20034;-64
2023/04/02 09:00:41;;;;;;;4.78;1.65;;;;;;;;;;5111972;28;20028;-62
2023/04/02 09:03:20;;;;;;;5.90;1.67;;;;;;;;;;5112337;28;20031;-75
2023/04/02 09:05:48;;;;;;;7.82;2.50;;;;;;;;;;5111896;28;20076;-76
2023/04/02 09:08:20;;;;;;;4.00;2.00;;;;;;;;;;5111801;28;20110;-67
2023/04/02 09:11:06;;;;;;;5.57;1.90;;;;;;;;;;5111475;28;20110;-64
2023/04/02 09:13:36;;;;;;;4.10;1.98;;;;;;;;;;5112184;28;20020;-64
2023/04/02 09:16:06;;;;;;;;;;;;;;;;;;5112558;28;20513;-75
2023/04/02 09:18:32;;;;;;;8.55;2.38;;;;;;;;;;5112085;28;20034;-77
2023/04/02 09:21:00;;;;;;;5.28;2.15;;;;;;;;;;5111696;28;20078;-63
2023/04/02 09:23:26;;;;;;;6.82;2.45;;;;;;;;;;5111693;28;20035;-63
2023/04/02 09:25:53;;;;;;;4.53;1.75;;;;;;;;;;5111492;28;20027;-63
2023/04/02 09:28:20;;;;;;;5.63;1.90;;;;;;;;;;5111933;28;20485;-71
2023/04/02 09:31:08;;;;;;;6.80;2.30;;;;;;;;;;5111705;28;20027;-66
2023/04/02 09:33:48;;;;;;;6.43;2.78;;;;;;;;;;5105333;28;20030;-62
2023/04/02 09:36:34;;;;;;;;;;;;;;;;;;5108238;28;20386;-68
2023/04/02 09:39:15;;;;;;;3.90;1.90;;;;;;;;;;5111476;28;19907;-66
2023/04/02 09:41:40;;;;;;;7.15;2.60;;;;;;;;;;5111315;28;20024;-64
2023/04/02 09:44:22;;;;;;;6.75;2.85;;;;;;;;;;5111295;28;20471;-63
2023/04/02 09:47:11;;;;;;;7.15;1.65;;;;;;;;;;5111440;28;20015;-76
2023/04/02 09:49:38;;;;;;;4.72;1.80;;;;;;;;;;5110963;28;20492;-66
2023/04/02 09:52:15;;;;;;;6.47;2.97;;;;;;;;;;5111617;28;20023;-65
2023/04/02 09:54:41;;;;;;;5.25;1.77;;;;;;;;;;5111439;28;20027;-67
2023/04/02 09:57:23;;;;;;;5.28;1.83;;;;;;;;;;5111314;28;20019;-71
2023/04/02 10:00:21;;;;;;;6.05;2.00;;;;;;;;;;5111621;28;20381;-63
2023/04/02 10:03:01;;;;;;;6.45;2.10;;;;;;;;;;5111407;28;20492;-63
2023/04/02 10:05:26;;;;;;;3.80;1.43;;;;;;;;;;5108366;28;20052;-65
2023/04/02 10:07:53;;;;;;;3.72;1.65;;;;;;;;;;5110875;28;20101;-62
2023/04/02 10:10:45;;;;;;;4.57;1.60;;;;;;;;;;5111085;28;20542;-70
2023/04/02 10:13:20;;;;;;;3.70;1.50;;;;;;;;;;5111201;28;20027;-67
2023/04/02 10:15:57;;;;;;;6.50;2.53;;;;;;;;;;5111123;28;20497;-63
2023/04/02 10:18:28;;;;;;;5.07;1.48;;;;;;;;;;5092980;28;20505;-62
2023/04/02 10:20:55;;;;;;;4.03;1.65;;;;;;;;;;5111102;28;20024;-62
2023/04/02 10:23:25;;;;;;;4.63;1.83;;;;;;;;;;5110693;28;20024;-62
2023/04/02 10:25:56;;;;;;;;;;;;;;;;;;5111467;28;20027;-63
2023/04/02 10:28:59;;;;;;;3.90;1.58;;;;;;;;;;5094179;28;19934;-71
2023/04/02 10:31:49;;;;;;;6.47;1.90;;;;;;;;;;5111038;28;20030;-66
2023/04/02 10:34:35;;;;;;;3.55;1.90;;;;;;;;;;5107504;28;20038;-63
2023/04/02 10:37:46;;;;;;;5.10;1.50;;;;;;;;;;5112486;28;20490;-63
2023/04/02 10:40:41;;;;;;;3.83;1.33;;;;;;;;;;5092057;28;20035;-73
2023/04/02 10:43:27;;;;;;;4.35;1.60;;;;;;;;;;5092123;28;20024;-75
2023/04/02 10:46:20;;;;;;;4.75;1.63;;;;;;;;;;5091993;28;20031;-77
2023/04/02 10:48:52;;;;;;;4.57;1.40;;;;;;;;;;5091049;28;20044;-71
2023/04/02 10:51:47;;;;;;;7.18;1.33;;;;;;;;;;5091243;28;20077;-63
2023/04/02 10:54:49;;;;;;;2.80;1.27;;;;;;;;;;5080893;28;20047;-68
2023/04/02 10:57:35;;;;;;;3.40;1.35;;;;;;;;;;5090203;28;20082;-65
2023/04/02 11:00:17;;;;;;;3.20;1.60;;;;;;;;;;5090124;28;20487;-66
2023/04/02 11:02:57;;;;;;;4.13;1.65;;;;;;;;;;5088455;28;20066;-71
2023/04/02 11:05:42;;;;;;;3.97;1.80;;;;;;;;;;5087880;28;20055;-67
2023/04/02 11:08:25;;;;;;;3.72;1.60;;;;;;;;;;5089169;28;20524;-62
2023/04/02 11:11:09;;;;;;;8.07;3.10;;;;;;;;;;5089827;28;20039;-62
2023/04/02 11:13:50;;;;;;;9.10;3.22;;;;;;;;;;5096902;28;20095;-68
2023/04/02 11:16:16;;;;;;;7.38;3.22;;;;;;;;;;5113021;28;20023;-71
2023/04/02 11:18:43;;;;;;;4.72;1.92;;;;;;;;;;5113457;28;20016;-72
2023/04/02 11:21:41;;;;;;;9.65;4.70;;;;;;;;;;5113346;28;20032;-70
2023/04/02 11:24:23;;;;;;;47.70;16.98;;;;;;;;;;5111132;28;20107;-65
2023/04/02 11:26:50;;;;;;;9.48;1.77;;;;;;;;;;5113282;28;20081;-73
2023/04/02 11:29:27;;;;;;;11.20;4.68;;;;;;;;;;5113210;28;20023;-64
2023/04/02 11:32:19;;;;;;;10.55;5.03;;;;;;;;;;5110849;28;20442;-67
2023/04/02 11:34:48;;;;;;;5.35;2.20;;;;;;;;;;5111871;28;20124;-72
2023/04/02 11:37:37;;;;;;;3.50;2.30;;;;;;;;;;5113421;28;20038;-75
2023/04/02 11:40:12;;;;;;;9.07;3.60;;;;;;;;;;5112225;28;20020;-75
2023/04/02 11:42:43;;;;;;;4.85;1.80;;;;;;;;;;5111791;28;20019;-74
2023/04/02 11:45:23;;;;;;;6.30;2.90;;;;;;;;;;5113016;28;20023;-70
2023/04/02 11:48:00;;;;;;;4.82;2.17;;;;;;;;;;5111791;28;20431;-76
2023/04/02 11:50:30;;;;;;;10.85;7.00;;;;;;;;;;5112916;28;20034;-74
2023/04/02 11:53:02;;;;;;;3.95;1.83;;;;;;;;;;5109767;27;20020;-74
2023/04/02 11:55:31;;;;;;;4.70;2.05;;;;;;;;;;5113099;28;20114;-76
2023/04/02 11:58:15;;;;;;;6.88;1.50;;;;;;;;;;5108185;28;20019;-73
2023/04/02 12:00:55;;;;;;;5.10;1.83;;;;;;;;;;5110636;28;20122;-75
2023/04/02 12:03:32;;;;;;;10.15;3.25;;;;;;;;;;5109454;27;20512;-79
2023/04/02 12:06:24;;;;;;;10.30;5.00;;;;;;;;;;5114290;28;20046;-77
2023/04/02 12:09:17;;;;;;;5.35;2.25;;;;;;;;;;5114409;28;20072;-70
2023/04/02 12:11:43;;;;;;;8.57;2.00;;;;;;;;;;5112438;28;20023;-75
2023/04/02 12:14:36;;;;;;;4.20;2.13;;;;;;;;;;5112294;28;20386;-70
2023/04/02 12:17:04;;;;;;;5.13;2.25;;;;;;;;;;5113431;28;20024;-78
2023/04/02 12:19:30;;;;;;;13.00;4.43;;;;;;;;;;5111005;28;20477;-79
2023/04/02 12:21:58;;;;;;;4.40;2.30;;;;;;;;;;5113304;28;20028;-78
2023/04/02 12:24:30;;;;;;;7.18;1.58;;;;;;;;;;5113274;28;20488;-77
2023/04/02 12:27:31;;;;;;;4.18;1.27;;;;;;;;;;5113153;28;20482;-73
2023/04/02 12:30:15;;;;;;;2.78;1.60;;;;;;;;;;5069447;28;20082;-67
2023/04/02 12:32:41;;;;;;;2.80;1.27;;;;;;;;;;5068899;28;20035;-74
2023/04/02 12:35:26;;;;;;;6.47;1.63;;;;;;;;;;5069144;28;20021;-71
2023/04/02 12:37:52;;;;;;;4.13;1.40;;;;;;;;;;5069159;28;20568;-77
2023/04/02 12:40:18;;;;;;;2.45;1.25;;;;;;;;;;5069124;28;20139;-74
2023/04/02 12:42:44;;;;;;;6.18;1.27;;;;;;;;;;5069093;28;20099;-64
2023/04/02 12:45:29;;;;;;;3.40;1.10;;;;;;;;;;5068674;28;20033;-73
2023/04/02 12:47:54;;;;;;;4.63;1.10;;;;;;;;;;5051860;28;20033;-77
2023/04/02 12:50:21;;;;;;;6.40;1.40;;;;;;;;;;5068876;28;20481;-76
2023/04/02 12:52:52;;;;;;;3.40;1.20;;;;;;;;;;5069213;28;20032;-72
2023/04/02 12:55:19;;;;;;;;;;;;;;;;;;5069828;28;20112;-77
2023/04/02 12:57:48;;;;;;;3.83;2.13;;;;;;;;;;5066001;28;19917;-72
2023/04/02 13:00:23;;;;;;;4.70;1.30;;;;;;;;;;5068767;28;20024;-76
2023/04/02 13:03:16;;;;;;;4.05;1.73;;;;;;;;;;5053924;28;20428;-73
2023/04/02 13:05:55;;;;;;;7.32;2.17;;;;;;;;;;5112868;28;20051;-75
2023/04/02 13:08:26;;;;;;;3.28;1.15;;;;;;;;;;5112362;28;20058;-77
2023/04/02 13:10:54;;;;;;;3.22;1.30;;;;;;;;;;5111687;28;20023;-77
2023/04/02 13:13:26;;;;;;;7.93;2.38;;;;;;;;;;5112165;28;20035;-77
2023/04/02 13:16:13;;;;;;;5.03;1.50;;;;;;;;;;5111010;28;20027;-76
2023/04/02 13:18:40;;;;;;;13.90;4.18;;;;;;;;;;5112068;28;20024;-78
2023/04/02 13:21:26;;;;;;;4.43;2.83;;;;;;;;;;5110948;28;20537;-79
2023/04/02 13:23:52;;;;;;;5.30;2.45;;;;;;;;;;5109968;28;20081;-78
2023/04/02 13:26:21;;;;;;;4.03;1.48;;;;;;;;;;5110361;28;20367;-71
2023/04/02 13:29:08;;;;;;;4.28;1.48;;;;;;;;;;5110912;27;20111;-77
2023/04/02 13:31:33;;;;;;;3.35;1.30;;;;;;;;;;5111521;28;20505;-78
2023/04/02 13:33:59;;;;;;;4.45;1.23;;;;;;;;;;5111558;28;20059;-76
2023/04/02 13:36:27;;;;;;;5.13;1.33;;;;;;;;;;5111855;28;20030;-71
2023/04/02 13:38:52;;;;;;;5.25;1.58;;;;;;;;;;5110427;28;20024;-77
2023/04/02 13:41:41;;;;;;;5.97;2.22;;;;;;;;;;5110773;28;20027;-77
2023/04/02 13:44:17;;;;;;;4.43;1.50;;;;;;;;;;5110731;28;20481;-77
2023/04/02 13:46:42;;;;;;;4.53;1.30;;;;;;;;;;5111611;28;20482;-78
2023/04/02 13:49:10;;;;;;;3.00;1.20;;;;;;;;;;5110527;28;20019;-78
2023/04/02 13:51:38;;;;;;;4.82;1.40;;;;;;;;;;5111616;28;20482;-76
2023/04/02 13:54:09;;;;;;;4.90;1.48;;;;;;;;;;5111861;28;20023;-78
2023/04/02 13:56:35;;;;;;;6.03;1.55;;;;;;;;;;5111646;28;20024;-76
2023/04/02 13:59:00;;;;;;;5.47;1.50;;;;;;;;;;5111358;28;20038;-77
2023/04/02 14:01:26;;;;;;;4.28;1.63;;;;;;;;;;5110769;28;20024;-77
2023/04/02 14:03:53;;;;;;;5.78;1.65;;;;;;;;;;5110052;28;20042;-77
2023/04/02 14:06:39;;;;;;;4.82;1.40;;;;;;;;;;5112119;28;20413;-72
2023/04/02 14:09:39;;;;;;;6.15;1.85;;;;;;;;;;5111111;28;20047;-77
2023/04/02 14:12:12;;;;;;;7.72;3.65;;;;;;;;;;5115140;28;20442;-77
2023/04/02 14:14:59;;;;;;;7.15;2.50;;;;;;;;;;5114397;28;20034;-77
2023/04/02 14:17:52;;;;;;;2.30;1.20;;;;;;;;;;5115982;28;20019;-77
2023/04/02 14:20:35;;;;;;;8.43;2.70;;;;;;;;;;5115253;28;20448;-76
2023/04/02 14:23:03;;;;;;;3.50;1.90;;;;;;;;;;5112501;28;20063;-77
2023/04/02 14:25:53;;;;;;;5.80;2.95;;;;;;;;;;5114796;28;20060;-73
2023/04/02 14:28:26;;;;;;;5.13;2.42;;;;;;;;;;5112162;28;20067;-69
2023/04/02 14:31:31;;;;;;;3.65;1.10;;;;;;;;;;5112403;28;20036;-79
2023/04/02 14:34:15;;;;;;;3.63;1.40;;;;;;;;;;5108069;28;20458;-74
2023/04/02 14:36:55;;;;;;;4.80;2.00;;;;;;;;;;5112462;28;20084;-69
2023/04/02 14:39:47;;;;;;;2.53;1.30;;;;;;;;;;5112119;28;20027;-76
2023/04/02 14:42:17;;;;;;;6.00;2.40;;;;;;;;;;5113726;28;20491;-77
2023/04/02 14:44:50;;;;;;;;;;;;;;;;;;5112856;28;20059;-76
2023/04/02 14:47:38;;;;;;;3.17;1.50;;;;;;;;;;5109528;28;19942;-68
2023/04/02 14:50:12;;;;;;;6.70;2.30;;;;;;;;;;5115905;28;20539;-71
2023/04/02 14:52:43;;;;;;;35.53;14.55;;;;;;;;;;5115499;27;20031;-77
2023/04/02 14:55:34;;;;;;;8.02;2.10;;;;;;;;;;5115334;28;20514;-74
2023/04/02 14:58:04;;;;;;;4.65;2.05;;;;;;;;;;5107065;28;20040;-71
2023/04/02 15:00:42;;;;;;;4.32;1.80;;;;;;;;;;5115117;28;20047;-72
2023/04/02 15:03:20;;;;;;;5.60;1.70;;;;;;;;;;5114103;28;20099;-77
2023/04/02 15:05:56;;;;;;;3.92;1.17;;;;;;;;;;5114875;28;20050;-76
2023/04/02 15:08:29;;;;;;;2.17;1.30;;;;;;;;;;5114299;28;20020;-72
2023/04/02 15:11:03;;;;;;;3.45;1.40;;;;;;;;;;5115272;28;20093;-75
2023/04/02 15:13:54;;;;;;;3.85;1.48;;;;;;;;;;5115208;28;20239;-67
2023/04/02 15:16:22;;;;;;;3.05;1.10;;;;;;;;;;5115621;27;20058;-68
2023/04/02 15:18:54;;;;;;;3.70;1.40;;;;;;;;;;5113984;28;20477;-66
2023/04/02 15:21:21;;;;;;;3.88;1.30;;;;;;;;;;5113903;28;20509;-72
2023/04/02 15:24:14;;;;;;;10.38;3.97;;;;;;;;;;5114070;28;20028;-67
2023/04/02 15:27:09;;;;;;;8.88;2.88;;;;;;;;;;5114804;28;20032;-62
2023/04/02 15:30:02;;;;;;;5.35;2.00;;;;;;;;;;5114961;28;20027;-63
2023/04/02 15:32:33;;;;;;;6.32;2.35;;;;;;;;;;5115041;28;20027;-65